sensor_id;sensor_type;location;lat;lon;timestamp;P1;durP1;ratioP1;P2;durP2;ratioP2
6902;SDS011;20232;49.408;8.702;2022-07-22T04:01:54;11.13;;;10.00;;
6902;SDS011;20232;49.408;8.702;2022-07-22T04:04:20;10.77;;;9.67;;
6902;SDS011;20232;49.408;8.702;2022-07-22T04:06:45;11.40;;;10.20;;
6902;SDS011;20232;49.408;8.702;2022-07-22T04:09:11;11.00;;;9.83;;
6902;SDS011;20232;49.408;8.702;2022-07-22T04:11:36;11.57;;;10.47;;
6902;SDS011;20232;49.408;8.702;2022-07-22T04:14:02;11.50;;;10.27;;
6902;SDS011;20232;49.408;8.702;2022-07-22T04:16:27;10.97;;;9.87;;
6902;SDS011;20232;49.408;8.702;2022-07-22T04:18:53;10.80;;;9.70;;
6902;SDS011;20232;49.408;8.702;2022-07-22T04:21:19;11.10;;;9.80;;
6902;SDS011;20232;49.408;8.702;2022-07-22T04:23:44;10.03;;;9.23;;
6902;SDS011;20232;49.408;8.702;2022-07-22T04:26:10;10.63;;;9.73;;
6902;SDS011;20232;49.408;8.702;2022-07-22T04:28:36;11.03;;;9.93;;
6902;SDS011;20232;49.408;8.702;2022-07-22T04:31:02;10.20;;;9.10;;
6902;SDS011;20232;49.408;8.702;2022-07-22T04:33:28;10.63;;;9.73;;
6902;SDS011;20232;49.408;8.702;2022-07-22T04:35:54;10.60;;;9.30;;
6902;SDS011;20232;49.408;8.702;2022-07-22T04:38:20;10.53;;;9.53;;
6902;SDS011;20232;49.408;8.702;2022-07-22T04:40:46;9.63;;;8.77;;
6902;SDS011;20232;49.408;8.702;2022-07-22T04:43:11;10.03;;;8.93;;
6902;SDS011;20232;49.408;8.702;2022-07-22T04:45:37;9.27;;;8.43;;
6902;SDS011;20232;49.408;8.702;2022-07-22T04:48:02;10.70;;;9.60;;
6902;SDS011;20232;49.408;8.702;2022-07-22T04:50:28;9.90;;;8.90;;
6902;SDS011;20232;49.408;8.702;2022-07-22T04:52:54;9.40;;;8.60;;
6902;SDS011;20232;49.408;8.702;2022-07-22T04:55:20;9.13;;;8.30;;
6902;SDS011;20232;49.408;8.702;2022-07-22T04:57:45;10.60;;;8.87;;
6902;SDS011;20232;49.408;8.702;2022-07-22T05:00:11;9.20;;;8.30;;
6902;SDS011;20232;49.408;8.702;2022-07-22T05:02:37;9.97;;;8.60;;
6902;SDS011;20232;49.408;8.702;2022-07-22T05:05:03;9.70;;;8.80;;
6902;SDS011;20232;49.408;8.702;2022-07-22T05:07:28;10.27;;;8.70;;
6902;SDS011;20232;49.408;8.702;2022-07-22T05:09:54;9.73;;;8.50;;
6902;SDS011;20232;49.408;8.702;2022-07-22T05:12:19;9.87;;;8.90;;
6902;SDS011;20232;49.408;8.702;2022-07-22T05:14:45;9.93;;;8.93;;
6902;SDS011;20232;49.408;8.702;2022-07-22T05:17:11;8.53;;;7.67;;
6902;SDS011;20232;49.408;8.702;2022-07-22T05:19:37;9.60;;;8.60;;
6902;SDS011;20232;49.408;8.702;2022-07-22T05:22:05;8.50;;;7.70;;
6902;SDS011;20232;49.408;8.702;2022-07-22T05:24:31;9.00;;;7.80;;
6902;SDS011;20232;49.408;8.702;2022-07-22T05:26:57;8.37;;;7.50;;
6902;SDS011;20232;49.408;8.702;2022-07-22T05:29:22;8.73;;;7.83;;
6902;SDS011;20232;49.408;8.702;2022-07-22T05:31:48;7.93;;;7.07;;
6902;SDS011;20232;49.408;8.702;2022-07-22T05:34:14;8.77;;;7.97;;
6902;SDS011;20232;49.408;8.702;2022-07-22T05:36:40;8.20;;;7.50;;
6902;SDS011;20232;49.408;8.702;2022-07-22T05:39:05;9.80;;;7.87;;
6902;SDS011;20232;49.408;8.702;2022-07-22T05:41:31;8.50;;;7.43;;
6902;SDS011;20232;49.408;8.702;2022-07-22T05:43:56;9.70;;;8.80;;
6902;SDS011;20232;49.408;8.702;2022-07-22T05:46:22;9.87;;;8.97;;
6902;SDS011;20232;49.408;8.702;2022-07-22T05:48:48;9.83;;;8.50;;
6902;SDS011;20232;49.408;8.702;2022-07-22T05:51:13;9.20;;;7.63;;
6902;SDS011;20232;49.408;8.702;2022-07-22T05:53:40;10.33;;;8.37;;
6902;SDS011;20232;49.408;8.702;2022-07-22T05:56:07;8.53;;;7.73;;
6902;SDS011;20232;49.408;8.702;2022-07-22T05:58:33;9.63;;;8.63;;
6902;SDS011;20232;49.408;8.702;2022-07-22T06:00:59;9.83;;;8.83;;
6902;SDS011;20232;49.408;8.702;2022-07-22T06:03:25;11.90;;;8.97;;
6902;SDS011;20232;49.408;8.702;2022-07-22T06:05:50;9.47;;;8.37;;
6902;SDS011;20232;49.408;8.702;2022-07-22T06:08:16;9.63;;;8.30;;
6902;SDS011;20232;49.408;8.702;2022-07-22T06:10:42;10.63;;;7.80;;
6902;SDS011;20232;49.408;8.702;2022-07-22T06:13:08;9.37;;;7.27;;
6902;SDS011;20232;49.408;8.702;2022-07-22T06:15:34;9.03;;;8.13;;
6902;SDS011;20232;49.408;8.702;2022-07-22T06:17:59;8.53;;;7.80;;
6902;SDS011;20232;49.408;8.702;2022-07-22T06:20:25;8.93;;;7.93;;
6902;SDS011;20232;49.408;8.702;2022-07-22T06:22:50;10.07;;;7.47;;
6902;SDS011;20232;49.408;8.702;2022-07-22T06:25:16;9.10;;;7.43;;
6902;SDS011;20232;49.408;8.702;2022-07-22T06:27:42;8.87;;;7.97;;
6902;SDS011;20232;49.408;8.702;2022-07-22T06:30:08;9.37;;;7.50;;
6902;SDS011;20232;49.408;8.702;2022-07-22T06:32:34;8.40;;;7.30;;
6902;SDS011;20232;49.408;8.702;2022-07-22T06:35:01;8.17;;;7.47;;
6902;SDS011;20232;49.408;8.702;2022-07-22T06:37:27;8.40;;;7.60;;
6902;SDS011;20232;49.408;8.702;2022-07-22T06:39:52;9.17;;;7.63;;
6902;SDS011;20232;49.408;8.702;2022-07-22T06:42:18;7.97;;;7.30;;
6902;SDS011;20232;49.408;8.702;2022-07-22T06:44:43;7.97;;;6.83;;
6902;SDS011;20232;49.408;8.702;2022-07-22T06:47:09;8.33;;;7.40;;
6902;SDS011;20232;49.408;8.702;2022-07-22T06:49:35;8.67;;;7.73;;
6902;SDS011;20232;49.408;8.702;2022-07-22T06:52:00;8.40;;;7.10;;
6902;SDS011;20232;49.408;8.702;2022-07-22T06:54:26;7.97;;;7.17;;
6902;SDS011;20232;49.408;8.702;2022-07-22T06:56:52;7.60;;;6.90;;
6902;SDS011;20232;49.408;8.702;2022-07-22T06:59:18;8.20;;;7.03;;
6902;SDS011;20232;49.408;8.702;2022-07-22T07:01:44;8.10;;;7.30;;
6902;SDS011;20232;49.408;8.702;2022-07-22T07:04:09;9.20;;;7.37;;
6902;SDS011;20232;49.408;8.702;2022-07-22T07:06:35;7.67;;;6.97;;
6902;SDS011;20232;49.408;8.702;2022-07-22T07:09:01;7.27;;;6.60;;
6902;SDS011;20232;49.408;8.702;2022-07-22T07:11:26;7.30;;;6.60;;
6902;SDS011;20232;49.408;8.702;2022-07-22T07:13:52;6.90;;;6.20;;
6902;SDS011;20232;49.408;8.702;2022-07-22T07:16:18;6.93;;;6.13;;
6902;SDS011;20232;49.408;8.702;2022-07-22T07:18:43;6.23;;;5.53;;
6902;SDS011;20232;49.408;8.702;2022-07-22T07:21:09;6.80;;;6.00;;
6902;SDS011;20232;49.408;8.702;2022-07-22T07:23:35;7.37;;;6.53;;
6902;SDS011;20232;49.408;8.702;2022-07-22T07:26:01;6.53;;;5.60;;
6902;SDS011;20232;49.408;8.702;2022-07-22T07:28:26;6.67;;;5.83;;
6902;SDS011;20232;49.408;8.702;2022-07-22T07:30:52;6.47;;;5.83;;
6902;SDS011;20232;49.408;8.702;2022-07-22T07:33:18;6.93;;;6.23;;
6902;SDS011;20232;49.408;8.702;2022-07-22T07:35:45;7.10;;;5.73;;
6902;SDS011;20232;49.408;8.702;2022-07-22T07:38:10;6.27;;;5.77;;
6902;SDS011;20232;49.408;8.702;2022-07-22T07:40:36;5.90;;;5.40;;
6902;SDS011;20232;49.408;8.702;2022-07-22T07:43:02;6.10;;;5.17;;
6902;SDS011;20232;49.408;8.702;2022-07-22T07:45:27;7.20;;;5.60;;
6902;SDS011;20232;49.408;8.702;2022-07-22T07:47:53;6.47;;;4.90;;
6902;SDS011;20232;49.408;8.702;2022-07-22T07:50:19;5.17;;;4.63;;
6902;SDS011;20232;49.408;8.702;2022-07-22T07:52:44;5.47;;;4.87;;
6902;SDS011;20232;49.408;8.702;2022-07-22T07:55:12;6.57;;;5.63;;
6902;SDS011;20232;49.408;8.702;2022-07-22T07:57:39;5.40;;;4.90;;
6902;SDS011;20232;49.408;8.702;2022-07-22T08:00:06;5.77;;;4.97;;
6902;SDS011;20232;49.408;8.702;2022-07-22T08:02:34;5.43;;;4.90;;
6902;SDS011;20232;49.408;8.702;2022-07-22T08:05:00;5.77;;;5.07;;
6902;SDS011;20232;49.408;8.702;2022-07-22T08:07:26;6.07;;;5.30;;
6902;SDS011;20232;49.408;8.702;2022-07-22T08:09:52;6.67;;;5.53;;
6902;SDS011;20232;49.408;8.702;2022-07-22T08:12:18;6.27;;;5.50;;
6902;SDS011;20232;49.408;8.702;2022-07-22T08:14:43;7.53;;;5.13;;
6902;SDS011;20232;49.408;8.702;2022-07-22T08:17:09;5.73;;;5.03;;
6902;SDS011;20232;49.408;8.702;2022-07-22T08:19:35;7.73;;;5.33;;
6902;SDS011;20232;49.408;8.702;2022-07-22T08:22:00;7.40;;;5.27;;
6902;SDS011;20232;49.408;8.702;2022-07-22T08:24:26;4.93;;;4.47;;
6902;SDS011;20232;49.408;8.702;2022-07-22T08:26:51;4.83;;;4.40;;
6902;SDS011;20232;49.408;8.702;2022-07-22T08:29:17;5.97;;;5.37;;
6902;SDS011;20232;49.408;8.702;2022-07-22T08:31:43;5.60;;;5.10;;
6902;SDS011;20232;49.408;8.702;2022-07-22T08:34:08;6.80;;;5.07;;
6902;SDS011;20232;49.408;8.702;2022-07-22T08:36:34;5.23;;;4.73;;
6902;SDS011;20232;49.408;8.702;2022-07-22T08:39:00;5.60;;;5.10;;
6902;SDS011;20232;49.408;8.702;2022-07-22T08:41:25;6.07;;;4.80;;
6902;SDS011;20232;49.408;8.702;2022-07-22T08:43:51;6.03;;;5.13;;
6902;SDS011;20232;49.408;8.702;2022-07-22T08:46:17;5.67;;;4.93;;
6902;SDS011;20232;49.408;8.702;2022-07-22T08:48:43;5.73;;;4.40;;
6902;SDS011;20232;49.408;8.702;2022-07-22T08:51:10;5.07;;;4.60;;
6902;SDS011;20232;49.408;8.702;2022-07-22T08:53:36;5.80;;;4.80;;
6902;SDS011;20232;49.408;8.702;2022-07-22T08:56:01;5.50;;;5.03;;
6902;SDS011;20232;49.408;8.702;2022-07-22T08:58:27;6.57;;;5.13;;
6902;SDS011;20232;49.408;8.702;2022-07-22T09:01:06;8.63;;;5.20;;
6902;SDS011;20232;49.408;8.702;2022-07-22T09:03:47;5.67;;;4.90;;
6902;SDS011;20232;49.408;8.702;2022-07-22T09:06:15;6.27;;;5.23;;
6902;SDS011;20232;49.408;8.702;2022-07-22T09:08:58;5.80;;;5.27;;
6902;SDS011;20232;49.408;8.702;2022-07-22T09:11:25;6.50;;;5.27;;
6902;SDS011;20232;49.408;8.702;2022-07-22T09:13:55;6.97;;;5.47;;
6902;SDS011;20232;49.408;8.702;2022-07-22T09:16:37;8.03;;;5.73;;
6902;SDS011;20232;49.408;8.702;2022-07-22T09:19:12;6.03;;;5.13;;
6902;SDS011;20232;49.408;8.702;2022-07-22T09:21:38;6.93;;;5.60;;
6902;SDS011;20232;49.408;8.702;2022-07-22T09:24:25;6.07;;;5.30;;
6902;SDS011;20232;49.408;8.702;2022-07-22T09:26:53;5.57;;;5.07;;
6902;SDS011;20232;49.408;8.702;2022-07-22T09:29:21;5.93;;;5.33;;
6902;SDS011;20232;49.408;8.702;2022-07-22T09:31:50;6.80;;;5.00;;
6902;SDS011;20232;49.408;8.702;2022-07-22T09:34:26;5.80;;;5.20;;
6902;SDS011;20232;49.408;8.702;2022-07-22T09:36:54;6.33;;;5.00;;
6902;SDS011;20232;49.408;8.702;2022-07-22T09:39:24;5.43;;;4.90;;
6902;SDS011;20232;49.408;8.702;2022-07-22T09:42:01;5.10;;;4.63;;
6902;SDS011;20232;49.408;8.702;2022-07-22T09:44:27;5.43;;;4.90;;
6902;SDS011;20232;49.408;8.702;2022-07-22T09:46:53;5.37;;;4.87;;
6902;SDS011;20232;49.408;8.702;2022-07-22T09:49:32;5.83;;;5.00;;
6902;SDS011;20232;49.408;8.702;2022-07-22T09:51:59;5.33;;;4.93;;
6902;SDS011;20232;49.408;8.702;2022-07-22T09:54:25;5.53;;;4.80;;
6902;SDS011;20232;49.408;8.702;2022-07-22T09:56:52;5.73;;;4.80;;
6902;SDS011;20232;49.408;8.702;2022-07-22T09:59:18;6.30;;;4.30;;
6902;SDS011;20232;49.408;8.702;2022-07-22T10:01:44;5.80;;;4.80;;
6902;SDS011;20232;49.408;8.702;2022-07-22T10:04:11;5.93;;;4.90;;
6902;SDS011;20232;49.408;8.702;2022-07-22T10:06:38;5.57;;;4.90;;
6902;SDS011;20232;49.408;8.702;2022-07-22T10:09:05;5.90;;;4.80;;
6902;SDS011;20232;49.408;8.702;2022-07-22T10:11:32;4.90;;;4.40;;
6902;SDS011;20232;49.408;8.702;2022-07-22T10:13:59;5.67;;;4.70;;
6902;SDS011;20232;49.408;8.702;2022-07-22T10:16:25;5.40;;;4.90;;
6902;SDS011;20232;49.408;8.702;2022-07-22T10:18:51;4.83;;;4.43;;
6902;SDS011;20232;49.408;8.702;2022-07-22T10:21:17;4.53;;;4.10;;
6902;SDS011;20232;49.408;8.702;2022-07-22T10:26:49;4.97;;;4.47;;
6902;SDS011;20232;49.408;8.702;2022-07-22T10:29:31;5.67;;;4.70;;
6902;SDS011;20232;49.408;8.702;2022-07-22T10:34:42;6.33;;;4.27;;
6902;SDS011;20232;49.408;8.702;2022-07-22T10:45:50;4.83;;;4.23;;
6902;SDS011;20232;49.408;8.702;2022-07-22T10:48:17;4.83;;;4.10;;
6902;SDS011;20232;49.408;8.702;2022-07-22T10:50:48;4.23;;;3.93;;
6902;SDS011;20232;49.408;8.702;2022-07-22T10:54:14;4.63;;;4.23;;
6902;SDS011;20232;49.408;8.702;2022-07-22T10:56:14;5.70;;;4.53;;
6902;SDS011;20232;49.408;8.702;2022-07-22T10:58:41;5.30;;;3.83;;
6902;SDS011;20232;49.408;8.702;2022-07-22T11:01:12;4.67;;;4.27;;
6902;SDS011;20232;49.408;8.702;2022-07-22T11:03:39;5.07;;;4.30;;
6902;SDS011;20232;49.408;8.702;2022-07-22T11:08:51;5.23;;;3.90;;
6902;SDS011;20232;49.408;8.702;2022-07-22T11:11:18;4.43;;;4.03;;
6902;SDS011;20232;49.408;8.702;2022-07-22T11:13:45;4.47;;;4.03;;
6902;SDS011;20232;49.408;8.702;2022-07-22T11:18:59;5.00;;;4.10;;
6902;SDS011;20232;49.408;8.702;2022-07-22T11:21:26;4.97;;;4.00;;
6902;SDS011;20232;49.408;8.702;2022-07-22T11:23:54;5.03;;;4.53;;
6902;SDS011;20232;49.408;8.702;2022-07-22T11:26:25;4.70;;;4.23;;
6902;SDS011;20232;49.408;8.702;2022-07-22T11:28:51;4.47;;;4.07;;
6902;SDS011;20232;49.408;8.702;2022-07-22T11:31:18;4.33;;;3.93;;
6902;SDS011;20232;49.408;8.702;2022-07-22T11:33:44;4.70;;;4.20;;
6902;SDS011;20232;49.408;8.702;2022-07-22T11:36:11;4.83;;;4.33;;
6902;SDS011;20232;49.408;8.702;2022-07-22T11:38:44;4.47;;;4.07;;
6902;SDS011;20232;49.408;8.702;2022-07-22T11:41:10;4.47;;;4.07;;
6902;SDS011;20232;49.408;8.702;2022-07-22T11:43:37;4.87;;;4.13;;
6902;SDS011;20232;49.408;8.702;2022-07-22T11:46:04;5.07;;;4.63;;
6902;SDS011;20232;49.408;8.702;2022-07-22T11:48:30;5.00;;;4.50;;
6902;SDS011;20232;49.408;8.702;2022-07-22T11:50:59;5.83;;;4.40;;
6902;SDS011;20232;49.408;8.702;2022-07-22T11:53:29;4.50;;;4.10;;
6902;SDS011;20232;49.408;8.702;2022-07-22T11:56:01;4.47;;;3.93;;
6902;SDS011;20232;49.408;8.702;2022-07-22T11:58:38;4.40;;;3.80;;
6902;SDS011;20232;49.408;8.702;2022-07-22T12:01:09;4.73;;;4.23;;
6902;SDS011;20232;49.408;8.702;2022-07-22T12:03:37;4.10;;;3.80;;
6902;SDS011;20232;49.408;8.702;2022-07-22T12:06:04;4.43;;;4.00;;
6902;SDS011;20232;49.408;8.702;2022-07-22T12:08:33;3.93;;;3.63;;
6902;SDS011;20232;49.408;8.702;2022-07-22T12:11:00;4.47;;;4.07;;
6902;SDS011;20232;49.408;8.702;2022-07-22T12:13:30;5.47;;;4.00;;
6902;SDS011;20232;49.408;8.702;2022-07-22T12:15:56;4.47;;;4.07;;
6902;SDS011;20232;49.408;8.702;2022-07-22T12:18:22;4.43;;;3.97;;
6902;SDS011;20232;49.408;8.702;2022-07-22T12:20:50;4.95;;;4.00;;
6902;SDS011;20232;49.408;8.702;2022-07-22T12:23:17;3.88;;;3.58;;
6902;SDS011;20232;49.408;8.702;2022-07-22T12:25:50;4.75;;;3.78;;
6902;SDS011;20232;49.408;8.702;2022-07-22T12:28:23;4.22;;;3.70;;
6902;SDS011;20232;49.408;8.702;2022-07-22T12:30:50;5.10;;;3.90;;
6902;SDS011;20232;49.408;8.702;2022-07-22T12:33:17;4.57;;;4.13;;
6902;SDS011;20232;49.408;8.702;2022-07-22T12:35:43;4.60;;;4.20;;
6902;SDS011;20232;49.408;8.702;2022-07-22T12:38:10;4.67;;;4.13;;
6902;SDS011;20232;49.408;8.702;2022-07-22T12:40:37;4.70;;;4.30;;
6902;SDS011;20232;49.408;8.702;2022-07-22T12:43:04;4.63;;;4.03;;
6902;SDS011;20232;49.408;8.702;2022-07-22T12:45:31;4.20;;;3.90;;
6902;SDS011;20232;49.408;8.702;2022-07-22T12:55:24;4.50;;;4.10;;
6902;SDS011;20232;49.408;8.702;2022-07-22T12:57:50;5.70;;;3.60;;
6902;SDS011;20232;49.408;8.702;2022-07-22T13:00:17;4.70;;;4.00;;
6902;SDS011;20232;49.408;8.702;2022-07-22T13:02:44;4.55;;;4.15;;
6902;SDS011;20232;49.408;8.702;2022-07-22T13:05:09;4.72;;;3.83;;
6902;SDS011;20232;49.408;8.702;2022-07-22T13:07:35;4.85;;;3.80;;
6902;SDS011;20232;49.408;8.702;2022-07-22T13:10:01;4.63;;;4.20;;
6902;SDS011;20232;49.408;8.702;2022-07-22T13:12:28;5.77;;;4.07;;
6902;SDS011;20232;49.408;8.702;2022-07-22T13:14:54;6.27;;;4.03;;
6902;SDS011;20232;49.408;8.702;2022-07-22T13:17:20;5.77;;;4.40;;
6902;SDS011;20232;49.408;8.702;2022-07-22T13:19:46;4.47;;;4.07;;
6902;SDS011;20232;49.408;8.702;2022-07-22T13:22:12;4.53;;;4.13;;
6902;SDS011;20232;49.408;8.702;2022-07-22T13:24:38;4.20;;;3.90;;
6902;SDS011;20232;49.408;8.702;2022-07-22T13:27:03;4.30;;;3.93;;
6902;SDS011;20232;49.408;8.702;2022-07-22T13:29:29;4.53;;;4.07;;
6902;SDS011;20232;49.408;8.702;2022-07-22T13:31:55;5.73;;;4.37;;
6902;SDS011;20232;49.408;8.702;2022-07-22T13:34:21;4.97;;;4.43;;
6902;SDS011;20232;49.408;8.702;2022-07-22T13:36:47;4.50;;;4.20;;
6902;SDS011;20232;49.408;8.702;2022-07-22T13:39:13;5.07;;;4.07;;
6902;SDS011;20232;49.408;8.702;2022-07-22T13:41:39;5.80;;;4.27;;
6902;SDS011;20232;49.408;8.702;2022-07-22T13:44:05;4.33;;;3.93;;
6902;SDS011;20232;49.408;8.702;2022-07-22T13:46:33;5.07;;;4.40;;
6902;SDS011;20232;49.408;8.702;2022-07-22T13:48:59;4.10;;;3.80;;
6902;SDS011;20232;49.408;8.702;2022-07-22T13:51:25;5.30;;;4.23;;
6902;SDS011;20232;49.408;8.702;2022-07-22T13:53:51;4.60;;;4.20;;
6902;SDS011;20232;49.408;8.702;2022-07-22T13:56:17;4.40;;;4.00;;
6902;SDS011;20232;49.408;8.702;2022-07-22T13:58:43;4.23;;;3.80;;
6902;SDS011;20232;49.408;8.702;2022-07-22T14:01:09;4.20;;;3.90;;
6902;SDS011;20232;49.408;8.702;2022-07-22T14:03:36;3.90;;;3.60;;
6902;SDS011;20232;49.408;8.702;2022-07-22T14:06:02;4.20;;;3.80;;
6902;SDS011;20232;49.408;8.702;2022-07-22T14:08:28;5.90;;;4.00;;
6902;SDS011;20232;49.408;8.702;2022-07-22T14:10:54;4.53;;;3.80;;
6902;SDS011;20232;49.408;8.702;2022-07-22T14:13:20;4.53;;;3.90;;
6902;SDS011;20232;49.408;8.702;2022-07-22T14:15:46;4.90;;;3.83;;
6902;SDS011;20232;49.408;8.702;2022-07-22T14:18:12;4.33;;;3.93;;
6902;SDS011;20232;49.408;8.702;2022-07-22T14:20:38;6.23;;;4.30;;
6902;SDS011;20232;49.408;8.702;2022-07-22T14:23:05;3.90;;;3.60;;
6902;SDS011;20232;49.408;8.702;2022-07-22T14:25:31;4.67;;;4.00;;
6902;SDS011;20232;49.408;8.702;2022-07-22T14:27:57;3.90;;;3.50;;
6902;SDS011;20232;49.408;8.702;2022-07-22T14:30:23;4.13;;;3.83;;
6902;SDS011;20232;49.408;8.702;2022-07-22T14:32:49;4.60;;;4.13;;
6902;SDS011;20232;49.408;8.702;2022-07-22T14:35:15;6.97;;;4.50;;
6902;SDS011;20232;49.408;8.702;2022-07-22T14:37:41;4.63;;;4.20;;
6902;SDS011;20232;49.408;8.702;2022-07-22T14:40:07;4.80;;;4.03;;
6902;SDS011;20232;49.408;8.702;2022-07-22T14:42:33;4.63;;;4.13;;
6902;SDS011;20232;49.408;8.702;2022-07-22T14:44:59;4.53;;;4.17;;
6902;SDS011;20232;49.408;8.702;2022-07-22T14:47:24;4.70;;;4.20;;
6902;SDS011;20232;49.408;8.702;2022-07-22T14:49:51;4.60;;;4.10;;
6902;SDS011;20232;49.408;8.702;2022-07-22T14:52:17;4.70;;;3.93;;
6902;SDS011;20232;49.408;8.702;2022-07-22T14:54:43;4.83;;;3.83;;
6902;SDS011;20232;49.408;8.702;2022-07-22T14:57:08;4.40;;;4.00;;
6902;SDS011;20232;49.408;8.702;2022-07-22T14:59:34;4.57;;;4.03;;
6902;SDS011;20232;49.408;8.702;2022-07-22T15:01:59;4.43;;;4.03;;
6902;SDS011;20232;49.408;8.702;2022-07-22T15:04:25;5.77;;;4.40;;
6902;SDS011;20232;49.408;8.702;2022-07-22T15:06:50;4.23;;;3.83;;
6902;SDS011;20232;49.408;8.702;2022-07-22T15:09:16;5.57;;;4.30;;
6902;SDS011;20232;49.408;8.702;2022-07-22T15:11:42;4.40;;;4.00;;
6902;SDS011;20232;49.408;8.702;2022-07-22T15:14:07;5.67;;;4.50;;
6902;SDS011;20232;49.408;8.702;2022-07-22T15:16:33;6.70;;;3.83;;
6902;SDS011;20232;49.408;8.702;2022-07-22T15:18:58;4.73;;;4.33;;
6902;SDS011;20232;49.408;8.702;2022-07-22T15:21:24;5.20;;;4.27;;
6902;SDS011;20232;49.408;8.702;2022-07-22T15:23:50;4.40;;;4.00;;
6902;SDS011;20232;49.408;8.702;2022-07-22T15:26:15;4.90;;;4.23;;
6902;SDS011;20232;49.408;8.702;2022-07-22T15:28:41;5.17;;;4.67;;
6902;SDS011;20232;49.408;8.702;2022-07-22T15:31:08;4.70;;;4.30;;
6902;SDS011;20232;49.408;8.702;2022-07-22T15:33:33;5.33;;;4.40;;
6902;SDS011;20232;49.408;8.702;2022-07-22T15:35:59;4.70;;;4.20;;
6902;SDS011;20232;49.408;8.702;2022-07-22T15:38:25;4.50;;;4.10;;
6902;SDS011;20232;49.408;8.702;2022-07-22T15:40:51;5.97;;;4.67;;
6902;SDS011;20232;49.408;8.702;2022-07-22T15:43:16;5.73;;;4.40;;
6902;SDS011;20232;49.408;8.702;2022-07-22T15:45:42;5.53;;;4.80;;
6902;SDS011;20232;49.408;8.702;2022-07-22T15:48:08;5.63;;;4.47;;
6902;SDS011;20232;49.408;8.702;2022-07-22T15:50:34;5.20;;;4.70;;
6902;SDS011;20232;49.408;8.702;2022-07-22T15:53:00;4.83;;;4.33;;
6902;SDS011;20232;49.408;8.702;2022-07-22T15:55:25;5.03;;;4.53;;
6902;SDS011;20232;49.408;8.702;2022-07-22T15:57:51;4.60;;;4.20;;
6902;SDS011;20232;49.408;8.702;2022-07-22T16:00:35;5.43;;;4.93;;
6902;SDS011;20232;49.408;8.702;2022-07-22T16:03:01;5.23;;;4.70;;
6902;SDS011;20232;49.408;8.702;2022-07-22T16:05:27;4.73;;;4.33;;
6902;SDS011;20232;49.408;8.702;2022-07-22T16:07:53;5.33;;;4.70;;
6902;SDS011;20232;49.408;8.702;2022-07-22T16:10:19;5.03;;;4.53;;
6902;SDS011;20232;49.408;8.702;2022-07-22T16:12:44;5.17;;;4.67;;
6902;SDS011;20232;49.408;8.702;2022-07-22T16:15:10;5.33;;;4.53;;
6902;SDS011;20232;49.408;8.702;2022-07-22T16:17:36;4.87;;;4.47;;
6902;SDS011;20232;49.408;8.702;2022-07-22T16:20:03;5.00;;;4.30;;
6902;SDS011;20232;49.408;8.702;2022-07-22T16:22:32;5.20;;;4.70;;
6902;SDS011;20232;49.408;8.702;2022-07-22T16:24:58;5.00;;;4.53;;
6902;SDS011;20232;49.408;8.702;2022-07-22T16:27:23;6.27;;;4.77;;
6902;SDS011;20232;49.408;8.702;2022-07-22T16:29:49;5.87;;;4.63;;
6902;SDS011;20232;49.408;8.702;2022-07-22T16:32:15;4.77;;;4.37;;
6902;SDS011;20232;49.408;8.702;2022-07-22T16:34:41;5.83;;;4.30;;
6902;SDS011;20232;49.408;8.702;2022-07-22T16:37:06;5.37;;;4.63;;
6902;SDS011;20232;49.408;8.702;2022-07-22T16:39:32;4.80;;;4.40;;
6902;SDS011;20232;49.408;8.702;2022-07-22T16:41:57;5.07;;;4.57;;
6902;SDS011;20232;49.408;8.702;2022-07-22T16:44:23;5.40;;;4.53;;
6902;SDS011;20232;49.408;8.702;2022-07-22T16:46:49;6.20;;;4.60;;
6902;SDS011;20232;49.408;8.702;2022-07-22T16:49:14;6.20;;;4.50;;
6902;SDS011;20232;49.408;8.702;2022-07-22T16:51:40;5.17;;;4.70;;
6902;SDS011;20232;49.408;8.702;2022-07-22T16:54:06;5.07;;;4.57;;
6902;SDS011;20232;49.408;8.702;2022-07-22T16:56:31;5.30;;;4.80;;
6902;SDS011;20232;49.408;8.702;2022-07-22T16:58:57;4.93;;;4.40;;
6902;SDS011;20232;49.408;8.702;2022-07-22T17:01:22;5.77;;;4.60;;
6902;SDS011;20232;49.408;8.702;2022-07-22T17:03:48;6.63;;;5.00;;
6902;SDS011;20232;49.408;8.702;2022-07-22T17:06:14;6.43;;;4.83;;
6902;SDS011;20232;49.408;8.702;2022-07-22T17:08:39;5.07;;;4.57;;
6902;SDS011;20232;49.408;8.702;2022-07-22T17:11:05;4.93;;;4.47;;
6902;SDS011;20232;49.408;8.702;2022-07-22T17:13:31;5.03;;;4.53;;
6902;SDS011;20232;49.408;8.702;2022-07-22T17:15:57;4.90;;;4.33;;
6902;SDS011;20232;49.408;8.702;2022-07-22T17:18:24;5.87;;;4.87;;
6902;SDS011;20232;49.408;8.702;2022-07-22T17:20:50;5.50;;;4.57;;
6902;SDS011;20232;49.408;8.702;2022-07-22T17:23:16;4.93;;;4.53;;
6902;SDS011;20232;49.408;8.702;2022-07-22T17:25:42;5.00;;;4.60;;
6902;SDS011;20232;49.408;8.702;2022-07-22T17:28:07;5.60;;;4.97;;
6902;SDS011;20232;49.408;8.702;2022-07-22T17:30:33;4.87;;;4.40;;
6902;SDS011;20232;49.408;8.702;2022-07-22T17:32:58;4.90;;;4.40;;
6902;SDS011;20232;49.408;8.702;2022-07-22T17:35:24;5.80;;;4.90;;
6902;SDS011;20232;49.408;8.702;2022-07-22T17:37:50;5.50;;;4.80;;
6902;SDS011;20232;49.408;8.702;2022-07-22T17:40:15;6.40;;;5.00;;
6902;SDS011;20232;49.408;8.702;2022-07-22T17:42:41;5.97;;;4.67;;
6902;SDS011;20232;49.408;8.702;2022-07-22T17:45:07;6.40;;;5.30;;
6902;SDS011;20232;49.408;8.702;2022-07-22T17:47:34;5.70;;;5.00;;
6902;SDS011;20232;49.408;8.702;2022-07-22T17:50:00;6.87;;;5.10;;
6902;SDS011;20232;49.408;8.702;2022-07-22T17:52:30;5.27;;;4.77;;
6902;SDS011;20232;49.408;8.702;2022-07-22T17:54:59;5.70;;;5.03;;
6902;SDS011;20232;49.408;8.702;2022-07-22T17:57:25;7.20;;;4.97;;
6902;SDS011;20232;49.408;8.702;2022-07-22T17:59:51;5.77;;;4.83;;
6902;SDS011;20232;49.408;8.702;2022-07-22T18:02:17;6.57;;;5.20;;
6902;SDS011;20232;49.408;8.702;2022-07-22T18:04:43;7.60;;;5.43;;
6902;SDS011;20232;49.408;8.702;2022-07-22T18:07:09;7.27;;;5.03;;
6902;SDS011;20232;49.408;8.702;2022-07-22T18:09:34;5.70;;;4.97;;
6902;SDS011;20232;49.408;8.702;2022-07-22T18:12:00;5.53;;;5.03;;
6902;SDS011;20232;49.408;8.702;2022-07-22T18:14:25;5.37;;;4.80;;
6902;SDS011;20232;49.408;8.702;2022-07-22T18:16:51;5.50;;;5.00;;
6902;SDS011;20232;49.408;8.702;2022-07-22T18:19:17;5.80;;;5.13;;
6902;SDS011;20232;49.408;8.702;2022-07-22T18:21:42;6.30;;;5.10;;
6902;SDS011;20232;49.408;8.702;2022-07-22T18:24:08;6.53;;;5.37;;
6902;SDS011;20232;49.408;8.702;2022-07-22T18:26:33;5.70;;;5.10;;
6902;SDS011;20232;49.408;8.702;2022-07-22T18:28:59;6.33;;;5.13;;
6902;SDS011;20232;49.408;8.702;2022-07-22T18:31:25;5.63;;;4.97;;
6902;SDS011;20232;49.408;8.702;2022-07-22T18:33:51;6.97;;;4.90;;
6902;SDS011;20232;49.408;8.702;2022-07-22T18:36:16;5.77;;;5.17;;
6902;SDS011;20232;49.408;8.702;2022-07-22T18:38:42;6.17;;;4.87;;
6902;SDS011;20232;49.408;8.702;2022-07-22T18:41:07;6.37;;;5.10;;
6902;SDS011;20232;49.408;8.702;2022-07-22T18:43:33;5.17;;;4.70;;
6902;SDS011;20232;49.408;8.702;2022-07-22T18:46:01;6.47;;;5.17;;
6902;SDS011;20232;49.408;8.702;2022-07-22T18:48:26;6.53;;;5.30;;
6902;SDS011;20232;49.408;8.702;2022-07-22T18:50:52;5.83;;;5.30;;
6902;SDS011;20232;49.408;8.702;2022-07-22T18:53:18;5.67;;;5.03;;
6902;SDS011;20232;49.408;8.702;2022-07-22T18:55:44;5.87;;;5.30;;
6902;SDS011;20232;49.408;8.702;2022-07-22T18:58:10;5.73;;;5.13;;
6902;SDS011;20232;49.408;8.702;2022-07-22T19:00:35;5.93;;;5.00;;
6902;SDS011;20232;49.408;8.702;2022-07-22T19:03:02;5.83;;;5.23;;
6902;SDS011;20232;49.408;8.702;2022-07-22T19:05:27;6.03;;;5.50;;
6902;SDS011;20232;49.408;8.702;2022-07-22T19:07:53;6.40;;;5.80;;
6902;SDS011;20232;49.408;8.702;2022-07-22T19:10:20;5.23;;;4.80;;
6902;SDS011;20232;49.408;8.702;2022-07-22T19:12:46;7.00;;;5.47;;
6902;SDS011;20232;49.408;8.702;2022-07-22T19:15:11;5.57;;;4.93;;
6902;SDS011;20232;49.408;8.702;2022-07-22T19:17:37;5.67;;;5.00;;
6902;SDS011;20232;49.408;8.702;2022-07-22T19:20:03;5.73;;;4.90;;
6902;SDS011;20232;49.408;8.702;2022-07-22T19:22:30;8.23;;;5.30;;
6902;SDS011;20232;49.408;8.702;2022-07-22T19:24:56;5.57;;;5.03;;